sensor_id;sensor_type;location;lat;lon;timestamp;temperature;humidity
7494;DHT22;3788;49.902;8.590;2024-03-17T00:01:07;9.10;99.90
7494;DHT22;3788;49.902;8.590;2024-03-17T00:03:33;9.20;99.90
7494;DHT22;3788;49.902;8.590;2024-03-17T00:06:01;9.20;99.90
7494;DHT22;3788;49.902;8.590;2024-03-17T00:08:27;9.20;99.90
7494;DHT22;3788;49.902;8.590;2024-03-17T00:10:54;9.10;99.90
7494;DHT22;3788;49.902;8.590;2024-03-17T00:13:20;9.10;99.90
7494;DHT22;3788;49.902;8.590;2024-03-17T00:15:47;9.10;99.90
7494;DHT22;3788;49.902;8.590;2024-03-17T00:18:13;9.10;99.90
7494;DHT22;3788;49.902;8.590;2024-03-17T00:20:40;9.10;99.90
7494;DHT22;3788;49.902;8.590;2024-03-17T00:23:07;9.10;99.90
7494;DHT22;3788;49.902;8.590;2024-03-17T00:25:35;9.00;99.90
7494;DHT22;3788;49.902;8.590;2024-03-17T00:28:01;9.00;99.90
7494;DHT22;3788;49.902;8.590;2024-03-17T00:30:28;8.90;99.90
7494;DHT22;3788;49.902;8.590;2024-03-17T00:32:54;8.90;99.90
7494;DHT22;3788;49.902;8.590;2024-03-17T00:35:21;8.90;99.90
7494;DHT22;3788;49.902;8.590;2024-03-17T00:37:46;8.90;99.90
7494;DHT22;3788;49.902;8.590;2024-03-17T00:40:15;8.90;99.90
7494;DHT22;3788;49.902;8.590;2024-03-17T00:42:41;8.90;99.90
7494;DHT22;3788;49.902;8.590;2024-03-17T00:45:09;8.90;99.90
7494;DHT22;3788;49.902;8.590;2024-03-17T00:47:35;8.80;99.90
7494;DHT22;3788;49.902;8.590;2024-03-17T00:50:02;8.80;99.90
7494;DHT22;3788;49.902;8.590;2024-03-17T00:52:29;8.70;99.90
7494;DHT22;3788;49.902;8.590;2024-03-17T00:54:56;8.60;99.90
7494;DHT22;3788;49.902;8.590;2024-03-17T00:57:23;8.60;99.90
7494;DHT22;3788;49.902;8.590;2024-03-17T00:59:50;8.50;99.90
7494;DHT22;3788;49.902;8.590;2024-03-17T01:02:16;8.50;99.90
7494;DHT22;3788;49.902;8.590;2024-03-17T01:04:42;8.50;99.90
7494;DHT22;3788;49.902;8.590;2024-03-17T01:07:09;8.50;99.90
7494;DHT22;3788;49.902;8.590;2024-03-17T01:09:35;8.50;99.90
7494;DHT22;3788;49.902;8.590;2024-03-17T01:12:01;8.40;99.90
7494;DHT22;3788;49.902;8.590;2024-03-17T01:14:30;8.50;99.90
7494;DHT22;3788;49.902;8.590;2024-03-17T01:16:56;8.40;99.90
7494;DHT22;3788;49.902;8.590;2024-03-17T01:19:23;8.50;99.90
7494;DHT22;3788;49.902;8.590;2024-03-17T01:21:50;8.40;99.90
7494;DHT22;3788;49.902;8.590;2024-03-17T01:24:17;8.40;99.90
7494;DHT22;3788;49.902;8.590;2024-03-17T01:26:43;8.40;99.90
7494;DHT22;3788;49.902;8.590;2024-03-17T01:29:10;8.30;99.90
7494;DHT22;3788;49.902;8.590;2024-03-17T01:31:37;8.30;99.90
7494;DHT22;3788;49.902;8.590;2024-03-17T01:34:04;8.30;99.90
7494;DHT22;3788;49.902;8.590;2024-03-17T01:36:29;8.20;99.90
7494;DHT22;3788;49.902;8.590;2024-03-17T01:38:56;8.10;99.90
7494;DHT22;3788;49.902;8.590;2024-03-17T01:41:22;8.10;99.90
7494;DHT22;3788;49.902;8.590;2024-03-17T01:43:49;8.10;99.90
7494;DHT22;3788;49.902;8.590;2024-03-17T01:46:16;8.00;99.90
7494;DHT22;3788;49.902;8.590;2024-03-17T01:48:45;7.80;99.90
7494;DHT22;3788;49.902;8.590;2024-03-17T01:51:12;7.70;99.90
7494;DHT22;3788;49.902;8.590;2024-03-17T01:53:39;7.60;99.90
7494;DHT22;3788;49.902;8.590;2024-03-17T01:56:07;7.50;99.90
7494;DHT22;3788;49.902;8.590;2024-03-17T01:58:36;7.50;99.90
7494;DHT22;3788;49.902;8.590;2024-03-17T02:01:02;7.50;99.90
7494;DHT22;3788;49.902;8.590;2024-03-17T02:03:29;7.40;99.90
7494;DHT22;3788;49.902;8.590;2024-03-17T02:05:57;7.40;99.90
7494;DHT22;3788;49.902;8.590;2024-03-17T02:08:23;7.40;99.90
7494;DHT22;3788;49.902;8.590;2024-03-17T02:10:53;7.40;99.90
7494;DHT22;3788;49.902;8.590;2024-03-17T02:13:20;7.40;99.90
7494;DHT22;3788;49.902;8.590;2024-03-17T02:15:46;7.30;99.90
7494;DHT22;3788;49.902;8.590;2024-03-17T02:18:13;7.30;99.90
7494;DHT22;3788;49.902;8.590;2024-03-17T02:20:39;7.30;99.90
7494;DHT22;3788;49.902;8.590;2024-03-17T02:23:27;7.30;99.90
7494;DHT22;3788;49.902;8.590;2024-03-17T02:25:53;7.30;99.90
7494;DHT22;3788;49.902;8.590;2024-03-17T02:28:20;7.20;99.90
7494;DHT22;3788;49.902;8.590;2024-03-17T02:30:46;7.10;99.90
7494;DHT22;3788;49.902;8.590;2024-03-17T02:33:12;7.00;99.90
7494;DHT22;3788;49.902;8.590;2024-03-17T02:35:38;6.90;99.90
7494;DHT22;3788;49.902;8.590;2024-03-17T02:38:05;6.90;99.90
7494;DHT22;3788;49.902;8.590;2024-03-17T02:40:34;6.80;99.90
7494;DHT22;3788;49.902;8.590;2024-03-17T02:43:01;6.80;99.90
7494;DHT22;3788;49.902;8.590;2024-03-17T02:45:27;6.80;99.90
7494;DHT22;3788;49.902;8.590;2024-03-17T02:47:54;6.80;99.90
7494;DHT22;3788;49.902;8.590;2024-03-17T02:50:21;6.80;99.90
7494;DHT22;3788;49.902;8.590;2024-03-17T02:52:46;6.70;99.90
7494;DHT22;3788;49.902;8.590;2024-03-17T02:55:13;6.70;99.90
7494;DHT22;3788;49.902;8.590;2024-03-17T02:57:41;6.60;99.90
7494;DHT22;3788;49.902;8.590;2024-03-17T03:00:09;6.50;99.90
7494;DHT22;3788;49.902;8.590;2024-03-17T03:02:38;6.50;99.90
7494;DHT22;3788;49.902;8.590;2024-03-17T03:05:05;6.40;99.90
7494;DHT22;3788;49.902;8.590;2024-03-17T03:07:32;6.40;99.90
7494;DHT22;3788;49.902;8.590;2024-03-17T03:09:59;6.40;99.90
7494;DHT22;3788;49.902;8.590;2024-03-17T03:12:26;6.40;99.90
7494;DHT22;3788;49.902;8.590;2024-03-17T03:14:54;6.30;99.90
7494;DHT22;3788;49.902;8.590;2024-03-17T03:17:20;6.30;99.90
7494;DHT22;3788;49.902;8.590;2024-03-17T03:19:47;6.20;99.90
7494;DHT22;3788;49.902;8.590;2024-03-17T03:22:13;6.20;99.90
7494;DHT22;3788;49.902;8.590;2024-03-17T03:24:39;6.10;99.90
7494;DHT22;3788;49.902;8.590;2024-03-17T03:27:06;6.00;99.90
7494;DHT22;3788;49.902;8.590;2024-03-17T03:29:34;6.00;99.90
7494;DHT22;3788;49.902;8.590;2024-03-17T03:32:02;6.00;99.90
7494;DHT22;3788;49.902;8.590;2024-03-17T03:34:28;6.00;99.90
7494;DHT22;3788;49.902;8.590;2024-03-17T03:36:55;6.00;99.90
7494;DHT22;3788;49.902;8.590;2024-03-17T03:39:22;6.00;99.90
7494;DHT22;3788;49.902;8.590;2024-03-17T03:41:49;6.00;99.90
7494;DHT22;3788;49.902;8.590;2024-03-17T03:44:15;5.90;99.90
7494;DHT22;3788;49.902;8.590;2024-03-17T03:46:42;5.90;99.90
7494;DHT22;3788;49.902;8.590;2024-03-17T03:49:13;5.90;99.90
7494;DHT22;3788;49.902;8.590;2024-03-17T03:51:40;5.80;99.90
7494;DHT22;3788;49.902;8.590;2024-03-17T03:54:07;5.80;99.90
7494;DHT22;3788;49.902;8.590;2024-03-17T03:56:33;5.70;99.90
7494;DHT22;3788;49.902;8.590;2024-03-17T03:59:01;5.70;99.90
7494;DHT22;3788;49.902;8.590;2024-03-17T04:01:28;5.70;99.90
7494;DHT22;3788;49.902;8.590;2024-03-17T04:03:55;5.70;99.90
7494;DHT22;3788;49.902;8.590;2024-03-17T04:06:22;5.70;99.90
7494;DHT22;3788;49.902;8.590;2024-03-17T04:08:49;5.70;99.90
7494;DHT22;3788;49.902;8.590;2024-03-17T04:11:16;5.60;99.90
7494;DHT22;3788;49.902;8.590;2024-03-17T04:13:42;5.70;99.90
7494;DHT22;3788;49.902;8.590;2024-03-17T04:16:09;5.70;99.90
7494;DHT22;3788;49.902;8.590;2024-03-17T04:18:36;5.70;99.90
7494;DHT22;3788;49.902;8.590;2024-03-17T04:21:05;5.60;99.90
7494;DHT22;3788;49.902;8.590;2024-03-17T04:23:34;5.70;99.90
7494;DHT22;3788;49.902;8.590;2024-03-17T04:26:01;5.70;99.90
7494;DHT22;3788;49.902;8.590;2024-03-17T04:28:28;5.60;99.90
7494;DHT22;3788;49.902;8.590;2024-03-17T04:31:03;5.60;99.90
7494;DHT22;3788;49.902;8.590;2024-03-17T04:33:31;5.60;99.90
7494;DHT22;3788;49.902;8.590;2024-03-17T04:35:58;5.60;99.90
7494;DHT22;3788;49.902;8.590;2024-03-17T04:38:25;5.60;99.90
7494;DHT22;3788;49.902;8.590;2024-03-17T04:40:53;5.60;99.90
7494;DHT22;3788;49.902;8.590;2024-03-17T04:43:28;5.60;99.90
7494;DHT22;3788;49.902;8.590;2024-03-17T04:46:00;5.50;99.90
7494;DHT22;3788;49.902;8.590;2024-03-17T04:48:27;5.50;99.90
7494;DHT22;3788;49.902;8.590;2024-03-17T04:50:54;5.40;99.90
7494;DHT22;3788;49.902;8.590;2024-03-17T04:53:20;5.40;99.90
7494;DHT22;3788;49.902;8.590;2024-03-17T04:55:47;5.30;99.90
7494;DHT22;3788;49.902;8.590;2024-03-17T04:58:15;5.40;99.90
7494;DHT22;3788;49.902;8.590;2024-03-17T05:00:41;5.40;99.90
7494;DHT22;3788;49.902;8.590;2024-03-17T05:03:08;5.40;99.90
7494;DHT22;3788;49.902;8.590;2024-03-17T05:05:35;5.40;99.90
7494;DHT22;3788;49.902;8.590;2024-03-17T05:08:02;5.40;99.90
7494;DHT22;3788;49.902;8.590;2024-03-17T05:10:29;5.40;99.90
7494;DHT22;3788;49.902;8.590;2024-03-17T05:12:56;5.50;99.90
7494;DHT22;3788;49.902;8.590;2024-03-17T05:15:24;5.50;99.90
7494;DHT22;3788;49.902;8.590;2024-03-17T05:17:50;5.50;99.90
7494;DHT22;3788;49.902;8.590;2024-03-17T05:20:17;5.50;99.90
7494;DHT22;3788;49.902;8.590;2024-03-17T05:22:43;5.50;99.90
7494;DHT22;3788;49.902;8.590;2024-03-17T05:25:13;5.50;99.90
7494;DHT22;3788;49.902;8.590;2024-03-17T05:27:40;5.50;99.90
7494;DHT22;3788;49.902;8.590;2024-03-17T05:30:07;5.50;99.90
7494;DHT22;3788;49.902;8.590;2024-03-17T05:32:36;5.40;99.90
7494;DHT22;3788;49.902;8.590;2024-03-17T05:35:04;5.30;99.90
7494;DHT22;3788;49.902;8.590;2024-03-17T05:37:31;5.30;99.90
7494;DHT22;3788;49.902;8.590;2024-03-17T05:39:57;5.30;99.90
7494;DHT22;3788;49.902;8.590;2024-03-17T05:42:24;5.30;99.90
7494;DHT22;3788;49.902;8.590;2024-03-17T05:44:51;5.20;99.90
7494;DHT22;3788;49.902;8.590;2024-03-17T05:47:18;5.20;99.90
7494;DHT22;3788;49.902;8.590;2024-03-17T05:49:46;5.20;99.90
7494;DHT22;3788;49.902;8.590;2024-03-17T05:52:13;5.20;99.90
7494;DHT22;3788;49.902;8.590;2024-03-17T05:54:40;5.20;99.90
7494;DHT22;3788;49.902;8.590;2024-03-17T05:57:06;5.30;99.90
7494;DHT22;3788;49.902;8.590;2024-03-17T05:59:34;5.30;99.90
7494;DHT22;3788;49.902;8.590;2024-03-17T06:02:01;5.30;99.90
7494;DHT22;3788;49.902;8.590;2024-03-17T06:04:27;5.40;99.90
7494;DHT22;3788;49.902;8.590;2024-03-17T06:06:55;5.40;99.90
7494;DHT22;3788;49.902;8.590;2024-03-17T06:09:22;5.50;99.90
7494;DHT22;3788;49.902;8.590;2024-03-17T06:11:49;5.50;99.90
7494;DHT22;3788;49.902;8.590;2024-03-17T06:14:16;5.60;99.90
7494;DHT22;3788;49.902;8.590;2024-03-17T06:16:43;5.60;99.90
7494;DHT22;3788;49.902;8.590;2024-03-17T06:19:10;5.60;99.90
7494;DHT22;3788;49.902;8.590;2024-03-17T06:21:37;5.60;99.90
7494;DHT22;3788;49.902;8.590;2024-03-17T06:24:06;5.70;99.90
7494;DHT22;3788;49.902;8.590;2024-03-17T06:26:33;5.70;99.90
7494;DHT22;3788;49.902;8.590;2024-03-17T06:29:00;5.80;99.90
7494;DHT22;3788;49.902;8.590;2024-03-17T06:31:27;5.90;99.90
7494;DHT22;3788;49.902;8.590;2024-03-17T06:33:54;6.00;99.90
7494;DHT22;3788;49.902;8.590;2024-03-17T06:36:21;6.10;99.90
7494;DHT22;3788;49.902;8.590;2024-03-17T06:38:48;6.20;99.90
7494;DHT22;3788;49.902;8.590;2024-03-17T06:41:16;6.30;99.90
7494;DHT22;3788;49.902;8.590;2024-03-17T06:43:42;6.40;99.90
7494;DHT22;3788;49.902;8.590;2024-03-17T06:46:09;6.50;99.90
7494;DHT22;3788;49.902;8.590;2024-03-17T06:48:36;6.60;99.90
7494;DHT22;3788;49.902;8.590;2024-03-17T06:51:03;6.70;99.90
7494;DHT22;3788;49.902;8.590;2024-03-17T06:53:30;6.80;99.90
7494;DHT22;3788;49.902;8.590;2024-03-17T06:55:59;6.90;99.90
7494;DHT22;3788;49.902;8.590;2024-03-17T06:58:28;7.00;99.90
7494;DHT22;3788;49.902;8.590;2024-03-17T07:00:56;7.20;99.90
7494;DHT22;3788;49.902;8.590;2024-03-17T07:03:24;7.40;99.90
7494;DHT22;3788;49.902;8.590;2024-03-17T07:05:52;7.60;99.90
7494;DHT22;3788;49.902;8.590;2024-03-17T07:08:19;7.80;99.90
7494;DHT22;3788;49.902;8.590;2024-03-17T07:10:58;8.00;99.90
7494;DHT22;3788;49.902;8.590;2024-03-17T07:13:25;8.30;99.90
7494;DHT22;3788;49.902;8.590;2024-03-17T07:15:53;8.60;99.90
7494;DHT22;3788;49.902;8.590;2024-03-17T07:18:19;9.00;99.90
7494;DHT22;3788;49.902;8.590;2024-03-17T07:20:46;9.30;99.90
7494;DHT22;3788;49.902;8.590;2024-03-17T07:23:13;9.60;99.90
7494;DHT22;3788;49.902;8.590;2024-03-17T07:25:41;10.10;99.10
7494;DHT22;3788;49.902;8.590;2024-03-17T07:28:08;10.30;98.50
7494;DHT22;3788;49.902;8.590;2024-03-17T07:30:34;10.70;98.10
7494;DHT22;3788;49.902;8.590;2024-03-17T07:33:02;11.00;97.30
7494;DHT22;3788;49.902;8.590;2024-03-17T07:35:29;11.20;96.50
7494;DHT22;3788;49.902;8.590;2024-03-17T07:37:56;11.10;96.00
7494;DHT22;3788;49.902;8.590;2024-03-17T07:40:22;11.00;95.90
7494;DHT22;3788;49.902;8.590;2024-03-17T07:42:49;10.90;95.90
7494;DHT22;3788;49.902;8.590;2024-03-17T07:45:16;10.90;96.00
7494;DHT22;3788;49.902;8.590;2024-03-17T07:47:44;11.10;96.00
7494;DHT22;3788;49.902;8.590;2024-03-17T07:50:12;11.70;95.40
7494;DHT22;3788;49.902;8.590;2024-03-17T07:52:39;12.20;94.40
7494;DHT22;3788;49.902;8.590;2024-03-17T07:55:06;12.90;93.70
7494;DHT22;3788;49.902;8.590;2024-03-17T07:57:34;13.40;92.60
7494;DHT22;3788;49.902;8.590;2024-03-17T08:00:01;13.90;92.00
7494;DHT22;3788;49.902;8.590;2024-03-17T08:02:28;14.20;91.60
7494;DHT22;3788;49.902;8.590;2024-03-17T08:04:55;14.50;91.30
7494;DHT22;3788;49.902;8.590;2024-03-17T08:07:23;14.70;91.00
7494;DHT22;3788;49.902;8.590;2024-03-17T08:09:50;14.80;90.70
7494;DHT22;3788;49.902;8.590;2024-03-17T08:12:16;14.90;90.70
7494;DHT22;3788;49.902;8.590;2024-03-17T08:14:43;14.90;90.40
7494;DHT22;3788;49.902;8.590;2024-03-17T08:17:10;14.90;90.30
7494;DHT22;3788;49.902;8.590;2024-03-17T08:19:36;14.90;90.00
7494;DHT22;3788;49.902;8.590;2024-03-17T08:22:04;14.80;90.30
7494;DHT22;3788;49.902;8.590;2024-03-17T08:24:32;14.70;90.00
7494;DHT22;3788;49.902;8.590;2024-03-17T08:26:59;14.70;89.80
7494;DHT22;3788;49.902;8.590;2024-03-17T08:29:26;14.70;89.80
7494;DHT22;3788;49.902;8.590;2024-03-17T08:31:53;14.70;89.60
7494;DHT22;3788;49.902;8.590;2024-03-17T08:34:20;14.70;89.10
7494;DHT22;3788;49.902;8.590;2024-03-17T08:36:46;14.80;88.00
7494;DHT22;3788;49.902;8.590;2024-03-17T08:39:13;14.90;87.30
7494;DHT22;3788;49.902;8.590;2024-03-17T08:41:41;15.00;86.80
7494;DHT22;3788;49.902;8.590;2024-03-17T08:44:09;15.00;86.30
7494;DHT22;3788;49.902;8.590;2024-03-17T08:46:36;15.00;85.50
7494;DHT22;3788;49.902;8.590;2024-03-17T08:49:03;15.00;85.20
7494;DHT22;3788;49.902;8.590;2024-03-17T08:51:30;15.00;84.70
7494;DHT22;3788;49.902;8.590;2024-03-17T08:53:57;15.10;83.80
7494;DHT22;3788;49.902;8.590;2024-03-17T08:56:24;15.00;82.90
7494;DHT22;3788;49.902;8.590;2024-03-17T08:58:52;15.10;83.10
7494;DHT22;3788;49.902;8.590;2024-03-17T09:01:18;15.20;82.30
7494;DHT22;3788;49.902;8.590;2024-03-17T09:03:45;15.30;81.90
7494;DHT22;3788;49.902;8.590;2024-03-17T09:06:15;15.50;81.90
7494;DHT22;3788;49.902;8.590;2024-03-17T09:08:42;15.70;81.40
7494;DHT22;3788;49.902;8.590;2024-03-17T09:11:12;15.80;80.90
7494;DHT22;3788;49.902;8.590;2024-03-17T09:13:39;15.60;80.80
7494;DHT22;3788;49.902;8.590;2024-03-17T09:16:08;15.40;80.80
7494;DHT22;3788;49.902;8.590;2024-03-17T09:18:36;15.30;81.10
7494;DHT22;3788;49.902;8.590;2024-03-17T09:21:05;15.40;81.30
7494;DHT22;3788;49.902;8.590;2024-03-17T09:23:33;15.40;81.30
7494;DHT22;3788;49.902;8.590;2024-03-17T09:26:01;15.60;81.00
7494;DHT22;3788;49.902;8.590;2024-03-17T09:28:28;15.60;80.30
7494;DHT22;3788;49.902;8.590;2024-03-17T09:30:55;15.60;80.00
7494;DHT22;3788;49.902;8.590;2024-03-17T09:33:25;15.60;80.30
7494;DHT22;3788;49.902;8.590;2024-03-17T09:35:56;15.60;80.30
7494;DHT22;3788;49.902;8.590;2024-03-17T09:38:23;15.60;80.40
7494;DHT22;3788;49.902;8.590;2024-03-17T09:40:50;15.60;80.20
7494;DHT22;3788;49.902;8.590;2024-03-17T09:43:19;15.60;80.30
7494;DHT22;3788;49.902;8.590;2024-03-17T09:45:45;15.50;79.80
7494;DHT22;3788;49.902;8.590;2024-03-17T09:48:14;15.70;80.10
7494;DHT22;3788;49.902;8.590;2024-03-17T09:50:48;15.80;79.60
7494;DHT22;3788;49.902;8.590;2024-03-17T09:53:16;15.90;79.20
7494;DHT22;3788;49.902;8.590;2024-03-17T09:55:43;15.90;78.60
7494;DHT22;3788;49.902;8.590;2024-03-17T09:58:14;15.90;78.50
7494;DHT22;3788;49.902;8.590;2024-03-17T10:00:41;15.90;78.50
7494;DHT22;3788;49.902;8.590;2024-03-17T10:03:08;15.90;78.50
7494;DHT22;3788;49.902;8.590;2024-03-17T10:05:35;15.90;78.50
7494;DHT22;3788;49.902;8.590;2024-03-17T10:08:03;15.80;78.50
7494;DHT22;3788;49.902;8.590;2024-03-17T10:10:30;15.80;78.80
7494;DHT22;3788;49.902;8.590;2024-03-17T10:12:57;15.90;79.20
7494;DHT22;3788;49.902;8.590;2024-03-17T10:15:24;16.20;79.30
7494;DHT22;3788;49.902;8.590;2024-03-17T10:17:50;16.40;78.50
7494;DHT22;3788;49.902;8.590;2024-03-17T10:20:18;16.70;78.00
7494;DHT22;3788;49.902;8.590;2024-03-17T10:23:03;16.90;77.60
7494;DHT22;3788;49.902;8.590;2024-03-17T10:25:32;17.10;76.50
7494;DHT22;3788;49.902;8.590;2024-03-17T10:28:00;17.10;76.30
7494;DHT22;3788;49.902;8.590;2024-03-17T10:30:27;17.30;76.10
7494;DHT22;3788;49.902;8.590;2024-03-17T10:32:57;17.50;75.60
7494;DHT22;3788;49.902;8.590;2024-03-17T10:35:28;17.70;75.40
7494;DHT22;3788;49.902;8.590;2024-03-17T10:37:55;17.70;75.10
7494;DHT22;3788;49.902;8.590;2024-03-17T10:40:25;17.60;74.90
7494;DHT22;3788;49.902;8.590;2024-03-17T10:42:51;17.40;74.70
7494;DHT22;3788;49.902;8.590;2024-03-17T10:45:18;17.20;73.90
7494;DHT22;3788;49.902;8.590;2024-03-17T10:47:48;17.10;74.50
7494;DHT22;3788;49.902;8.590;2024-03-17T10:50:20;17.00;74.80
7494;DHT22;3788;49.902;8.590;2024-03-17T10:52:48;17.00;75.00
7494;DHT22;3788;49.902;8.590;2024-03-17T10:55:24;16.90;74.80
7494;DHT22;3788;49.902;8.590;2024-03-17T10:57:52;16.70;75.30
7494;DHT22;3788;49.902;8.590;2024-03-17T11:00:22;16.60;76.30
7494;DHT22;3788;49.902;8.590;2024-03-17T11:02:50;16.40;75.80
7494;DHT22;3788;49.902;8.590;2024-03-17T11:05:19;16.30;76.00
7494;DHT22;3788;49.902;8.590;2024-03-17T11:07:48;16.20;76.30
7494;DHT22;3788;49.902;8.590;2024-03-17T11:10:19;16.10;76.70
7494;DHT22;3788;49.902;8.590;2024-03-17T11:12:49;15.90;76.70
7494;DHT22;3788;49.902;8.590;2024-03-17T11:15:38;15.90;77.60
7494;DHT22;3788;49.902;8.590;2024-03-17T11:18:29;15.90;76.80
7494;DHT22;3788;49.902;8.590;2024-03-17T11:20:58;15.80;76.90
7494;DHT22;3788;49.902;8.590;2024-03-17T11:23:27;15.70;77.70
7494;DHT22;3788;49.902;8.590;2024-03-17T11:25:55;15.60;77.90
7494;DHT22;3788;49.902;8.590;2024-03-17T11:28:50;15.60;78.40
7494;DHT22;3788;49.902;8.590;2024-03-17T11:31:33;15.60;78.80
7494;DHT22;3788;49.902;8.590;2024-03-17T11:34:01;15.70;79.00
7494;DHT22;3788;49.902;8.590;2024-03-17T11:36:36;15.80;79.20
7494;DHT22;3788;49.902;8.590;2024-03-17T11:39:04;15.90;79.10
7494;DHT22;3788;49.902;8.590;2024-03-17T11:41:36;16.00;78.70
7494;DHT22;3788;49.902;8.590;2024-03-17T11:44:23;16.10;78.90
7494;DHT22;3788;49.902;8.590;2024-03-17T11:46:53;16.20;78.40
7494;DHT22;3788;49.902;8.590;2024-03-17T11:49:20;16.20;78.00
7494;DHT22;3788;49.902;8.590;2024-03-17T11:51:48;16.30;78.20
7494;DHT22;3788;49.902;8.590;2024-03-17T11:54:15;16.40;78.10
7494;DHT22;3788;49.902;8.590;2024-03-17T11:56:45;16.40;78.00
7494;DHT22;3788;49.902;8.590;2024-03-17T11:59:10;16.40;77.80
7494;DHT22;3788;49.902;8.590;2024-03-17T12:01:39;16.40;77.70
7494;DHT22;3788;49.902;8.590;2024-03-17T12:04:05;16.30;77.70
7494;DHT22;3788;49.902;8.590;2024-03-17T12:06:33;16.30;78.00
7494;DHT22;3788;49.902;8.590;2024-03-17T12:09:09;16.30;78.10
7494;DHT22;3788;49.902;8.590;2024-03-17T12:11:37;16.20;77.80
7494;DHT22;3788;49.902;8.590;2024-03-17T12:14:16;16.30;78.10
7494;DHT22;3788;49.902;8.590;2024-03-17T12:16:49;16.30;78.00
7494;DHT22;3788;49.902;8.590;2024-03-17T12:19:16;16.20;78.10
7494;DHT22;3788;49.902;8.590;2024-03-17T12:21:44;16.10;79.10
7494;DHT22;3788;49.902;8.590;2024-03-17T12:24:14;16.10;78.50
7494;DHT22;3788;49.902;8.590;2024-03-17T12:26:43;16.00;78.30
7494;DHT22;3788;49.902;8.590;2024-03-17T12:29:26;16.00;78.80
7494;DHT22;3788;49.902;8.590;2024-03-17T12:31:55;15.90;79.10
7494;DHT22;3788;49.902;8.590;2024-03-17T12:34:25;15.90;79.50
7494;DHT22;3788;49.902;8.590;2024-03-17T12:36:52;15.90;79.60
7494;DHT22;3788;49.902;8.590;2024-03-17T12:39:19;15.90;79.70
7494;DHT22;3788;49.902;8.590;2024-03-17T12:41:54;16.00;79.70
7494;DHT22;3788;49.902;8.590;2024-03-17T12:44:27;16.00;79.70
7494;DHT22;3788;49.902;8.590;2024-03-17T12:46:56;16.00;79.70
7494;DHT22;3788;49.902;8.590;2024-03-17T12:49:23;16.10;79.60
7494;DHT22;3788;49.902;8.590;2024-03-17T12:51:51;16.10;79.10
7494;DHT22;3788;49.902;8.590;2024-03-17T12:54:20;16.10;79.00
7494;DHT22;3788;49.902;8.590;2024-03-17T12:56:46;16.00;78.80
7494;DHT22;3788;49.902;8.590;2024-03-17T12:59:40;15.90;79.10
7494;DHT22;3788;49.902;8.590;2024-03-17T13:02:26;15.80;79.60
7494;DHT22;3788;49.902;8.590;2024-03-17T13:05:07;15.70;79.90
7494;DHT22;3788;49.902;8.590;2024-03-17T13:07:35;15.70;80.00
7494;DHT22;3788;49.902;8.590;2024-03-17T13:10:01;15.60;80.00
7494;DHT22;3788;49.902;8.590;2024-03-17T13:12:29;15.60;80.40
7494;DHT22;3788;49.902;8.590;2024-03-17T13:14:56;15.60;80.80
7494;DHT22;3788;49.902;8.590;2024-03-17T13:17:23;15.60;81.00
7494;DHT22;3788;49.902;8.590;2024-03-17T13:19:51;15.60;80.90
7494;DHT22;3788;49.902;8.590;2024-03-17T13:22:18;15.60;80.90
7494;DHT22;3788;49.902;8.590;2024-03-17T13:24:44;15.60;80.70
7494;DHT22;3788;49.902;8.590;2024-03-17T13:27:12;15.60;80.40
7494;DHT22;3788;49.902;8.590;2024-03-17T13:29:40;15.70;80.30
7494;DHT22;3788;49.902;8.590;2024-03-17T13:32:09;15.70;80.30
7494;DHT22;3788;49.902;8.590;2024-03-17T13:34:36;15.70;80.30
7494;DHT22;3788;49.902;8.590;2024-03-17T13:37:05;15.70;80.40
7494;DHT22;3788;49.902;8.590;2024-03-17T13:39:33;15.60;80.30
7494;DHT22;3788;49.902;8.590;2024-03-17T13:42:00;15.60;80.30
7494;DHT22;3788;49.902;8.590;2024-03-17T13:44:29;15.70;80.60
7494;DHT22;3788;49.902;8.590;2024-03-17T13:46:56;15.70;80.60
7494;DHT22;3788;49.902;8.590;2024-03-17T13:49:23;15.80;80.70
7494;DHT22;3788;49.902;8.590;2024-03-17T13:51:50;15.80;80.60
7494;DHT22;3788;49.902;8.590;2024-03-17T13:54:18;15.90;80.30
7494;DHT22;3788;49.902;8.590;2024-03-17T13:56:46;15.90;80.10
7494;DHT22;3788;49.902;8.590;2024-03-17T13:59:13;15.90;80.00
7494;DHT22;3788;49.902;8.590;2024-03-17T14:01:40;15.90;80.10
7494;DHT22;3788;49.902;8.590;2024-03-17T14:04:12;15.80;80.00
7494;DHT22;3788;49.902;8.590;2024-03-17T14:06:39;15.80;80.10
7494;DHT22;3788;49.902;8.590;2024-03-17T14:09:05;15.90;80.10
7494;DHT22;3788;49.902;8.590;2024-03-17T14:11:36;15.90;80.20
7494;DHT22;3788;49.902;8.590;2024-03-17T14:14:03;15.80;80.10
7494;DHT22;3788;49.902;8.590;2024-03-17T14:16:30;15.80;80.10
7494;DHT22;3788;49.902;8.590;2024-03-17T14:18:58;15.80;80.10
7494;DHT22;3788;49.902;8.590;2024-03-17T14:21:24;15.70;80.00
7494;DHT22;3788;49.902;8.590;2024-03-17T14:23:51;15.60;80.00
7494;DHT22;3788;49.902;8.590;2024-03-17T14:26:18;15.60;80.50
7494;DHT22;3788;49.902;8.590;2024-03-17T14:28:46;15.50;80.90
7494;DHT22;3788;49.902;8.590;2024-03-17T14:31:13;15.50;81.10
7494;DHT22;3788;49.902;8.590;2024-03-17T14:33:39;15.40;81.10
7494;DHT22;3788;49.902;8.590;2024-03-17T14:36:06;15.40;81.30
7494;DHT22;3788;49.902;8.590;2024-03-17T14:38:33;15.40;81.30
7494;DHT22;3788;49.902;8.590;2024-03-17T14:41:00;15.50;81.40
7494;DHT22;3788;49.902;8.590;2024-03-17T14:43:27;15.40;81.20
7494;DHT22;3788;49.902;8.590;2024-03-17T14:45:55;15.40;81.50
7494;DHT22;3788;49.902;8.590;2024-03-17T14:48:21;15.40;81.60
7494;DHT22;3788;49.902;8.590;2024-03-17T14:50:48;15.30;81.90
7494;DHT22;3788;49.902;8.590;2024-03-17T14:53:15;15.30;82.10
7494;DHT22;3788;49.902;8.590;2024-03-17T14:55:42;15.30;82.20
7494;DHT22;3788;49.902;8.590;2024-03-17T14:58:09;15.20;82.10
7494;DHT22;3788;49.902;8.590;2024-03-17T15:00:37;15.20;82.30
7494;DHT22;3788;49.902;8.590;2024-03-17T15:03:05;15.10;82.40
7494;DHT22;3788;49.902;8.590;2024-03-17T15:05:33;15.10;82.60
7494;DHT22;3788;49.902;8.590;2024-03-17T15:07:59;15.10;82.40
7494;DHT22;3788;49.902;8.590;2024-03-17T15:10:28;15.10;82.60
7494;DHT22;3788;49.902;8.590;2024-03-17T15:12:54;15.10;82.40
7494;DHT22;3788;49.902;8.590;2024-03-17T15:15:22;15.00;82.20
7494;DHT22;3788;49.902;8.590;2024-03-17T15:17:49;15.00;82.30
7494;DHT22;3788;49.902;8.590;2024-03-17T15:20:17;15.00;82.30
7494;DHT22;3788;49.902;8.590;2024-03-17T15:22:49;15.00;82.40
7494;DHT22;3788;49.902;8.590;2024-03-17T15:25:17;15.00;82.60
7494;DHT22;3788;49.902;8.590;2024-03-17T15:27:45;15.00;82.40
7494;DHT22;3788;49.902;8.590;2024-03-17T15:30:13;15.00;82.60
7494;DHT22;3788;49.902;8.590;2024-03-17T15:32:43;15.00;82.70
7494;DHT22;3788;49.902;8.590;2024-03-17T15:35:10;15.00;82.70
7494;DHT22;3788;49.902;8.590;2024-03-17T15:37:39;15.10;82.70
7494;DHT22;3788;49.902;8.590;2024-03-17T15:40:07;15.20;82.70
7494;DHT22;3788;49.902;8.590;2024-03-17T15:42:38;15.20;82.30
7494;DHT22;3788;49.902;8.590;2024-03-17T15:45:06;15.30;82.30
7494;DHT22;3788;49.902;8.590;2024-03-17T15:47:33;15.30;82.20
7494;DHT22;3788;49.902;8.590;2024-03-17T15:49:59;15.30;82.40
7494;DHT22;3788;49.902;8.590;2024-03-17T15:52:27;15.30;82.50
7494;DHT22;3788;49.902;8.590;2024-03-17T15:54:56;15.20;82.40
7494;DHT22;3788;49.902;8.590;2024-03-17T15:57:24;15.20;82.30
7494;DHT22;3788;49.902;8.590;2024-03-17T15:59:51;15.20;82.40
7494;DHT22;3788;49.902;8.590;2024-03-17T16:02:19;15.10;82.40
7494;DHT22;3788;49.902;8.590;2024-03-17T16:04:49;15.20;82.50
7494;DHT22;3788;49.902;8.590;2024-03-17T16:07:16;15.20;82.50
7494;DHT22;3788;49.902;8.590;2024-03-17T16:09:43;15.20;82.60
7494;DHT22;3788;49.902;8.590;2024-03-17T16:12:11;15.20;82.50
7494;DHT22;3788;49.902;8.590;2024-03-17T16:14:40;15.20;82.60